Time;durP1;ratioP1;P1;durP2;ratioP2;P2;SDS_P1;SDS_P2;PMS_P1;PMS_P2;Temp;Humidity;BMP_temperature;BMP_pressure;BME280_temperature;BME280_humidity;BME280_pressure;Samples;Min_cycle;Max_cycle;Signal;HPM_P1;HPM_P2
2022/01/29 00:02:28;;;;;;;0.83;0.70;;;0.30;99.90;-0.40;97774.00;;;;5001686;28;20457;-73
2022/01/29 00:05:17;;;;;;;0.73;0.60;;;0.30;99.90;-0.40;97781.00;;;;5006231;28;20571;-74
2022/01/29 00:08:06;;;;;;;2.13;1.03;;;0.20;99.90;-0.40;97762.00;;;;5003529;28;20551;-73
2022/01/29 00:11:02;;;;;;;1.47;0.90;;;0.20;99.90;-0.40;97775.00;;;;5003715;28;20455;-74
2022/01/29 00:13:52;;;;;;;0.60;0.60;;;0.10;99.90;-0.50;97770.00;;;;4988687;28;20445;-75
2022/01/29 00:16:41;;;;;;;0.87;0.87;;;0.10;99.90;-0.80;97777.00;;;;5001465;28;20433;-73
2022/01/29 00:19:30;;;;;;;0.70;0.70;;;0.10;99.90;-0.70;97757.00;;;;5007246;28;20433;-73
2022/01/29 00:22:19;;;;;;;0.70;0.70;;;0.00;99.90;-0.60;97765.00;;;;5006705;28;20473;-74
2022/01/29 00:25:09;;;;;;;0.67;0.60;;;-0.10;99.90;-0.40;97767.00;;;;5007067;28;20944;-74
2022/01/29 00:28:00;;;;;;;0.77;0.50;;;0.00;99.90;-0.40;97777.00;;;;5007391;28;20430;-74
2022/01/29 00:30:48;;;;;;;0.60;0.60;;;0.00;99.90;-0.40;97775.00;;;;5007035;28;20461;-72
2022/01/29 00:33:38;;;;;;;1.17;1.07;;;0.70;99.90;-0.40;97786.00;;;;5006657;28;20437;-74
2022/01/29 00:36:27;;;;;;;0.53;0.53;;;0.00;99.90;-0.40;97790.00;;;;5007795;28;20437;-73
2022/01/29 00:39:15;;;;;;;1.13;0.80;;;0.10;99.90;-0.40;97791.00;;;;5006599;28;20833;-74
2022/01/29 00:42:07;;;;;;;3.30;1.33;;;0.10;99.90;-0.30;97775.00;;;;5001134;28;20854;-73
2022/01/29 00:45:07;;;;;;;0.83;0.77;;;0.10;99.90;-0.40;97787.00;;;;5004215;28;20433;-74
2022/01/29 00:47:56;;;;;;;3.73;0.80;;;0.10;99.90;-0.50;97775.00;;;;5004999;28;20437;-73
2022/01/29 00:50:45;;;;;;;1.00;0.70;;;0.10;99.90;-0.50;97781.00;;;;5005835;28;20452;-73
2022/01/29 00:53:33;;;;;;;0.60;0.60;;;0.10;99.90;-0.50;97790.00;;;;5006070;28;20447;-73
2022/01/29 00:56:22;;;;;;;1.30;1.10;;;0.00;99.90;-0.40;97782.00;;;;5008097;28;20756;-74
2022/01/29 00:59:11;;;;;;;0.60;0.53;;;0.00;99.90;-0.70;97783.00;;;;5007679;28;20425;-73
2022/01/29 01:02:02;;;;;;;1.13;0.83;;;0.00;99.90;-0.50;97789.00;;;;4999857;28;20468;-73
2022/01/29 01:04:51;;;;;;;0.87;0.87;;;0.00;99.90;-0.40;97777.00;;;;5001368;28;20806;-73
2022/01/29 01:07:41;;;;;;;2.20;0.70;;;0.10;99.90;-0.20;97779.00;;;;5007121;28;20435;-72
2022/01/29 01:10:30;;;;;;;2.37;0.83;;;0.10;99.90;-0.10;97792.00;;;;5005204;28;20442;-73
2022/01/29 01:13:19;;;;;;;1.20;1.10;;;0.20;99.90;-0.10;97787.00;;;;5005895;28;20436;-75
2022/01/29 01:16:08;;;;;;;1.60;0.73;;;0.20;99.90;-0.20;97796.00;;;;5006713;28;20810;-73
2022/01/29 01:18:58;;;;;;;5.40;1.17;;;0.30;99.90;-0.30;97786.00;;;;5002297;28;20429;-73
2022/01/29 01:21:47;;;;;;;0.60;0.60;;;0.20;99.90;-0.70;97775.00;;;;5002084;28;20449;-73
2022/01/29 01:24:35;;;;;;;3.13;1.00;;;0.20;99.90;-0.60;97791.00;;;;5005968;28;20818;-74
2022/01/29 01:27:24;;;;;;;2.40;1.00;;;0.10;99.90;-0.40;97784.00;;;;5007718;28;21063;-72
2022/01/29 01:30:13;;;;;;;1.27;0.80;;;0.10;99.90;0.00;97784.00;;;;4997397;28;20421;-75
2022/01/29 01:33:03;;;;;;;5.13;1.20;;;0.20;99.90;0.00;97778.00;;;;5005117;28;20825;-73
2022/01/29 01:35:57;;;;;;;2.33;1.10;;;0.30;99.90;-0.10;97781.00;;;;5006748;28;20437;-75
2022/01/29 01:38:50;;;;;;;5.20;0.80;;;0.40;99.90;-0.30;97766.00;;;;5005913;28;20955;-73
2022/01/29 01:41:42;;;;;;;1.73;1.03;;;0.40;99.90;-0.10;97770.00;;;;5005330;28;20721;-72
2022/01/29 01:44:36;;;;;;;1.33;0.87;;;0.50;99.90;0.10;97767.00;;;;5003376;28;20433;-73
2022/01/29 01:47:24;;;;;;;2.47;1.13;;;0.50;99.90;0.00;97767.00;;;;5003339;28;20443;-74
2022/01/29 01:50:13;;;;;;;1.27;1.10;;;0.50;99.90;-1.00;97747.00;;;;5006898;28;20436;-76
2022/01/29 01:53:05;;;;;;;0.83;0.63;;;0.30;99.90;-0.60;97758.00;;;;5005848;28;20524;-75
2022/01/29 01:55:54;;;;;;;0.77;0.77;;;0.20;99.90;-0.30;97767.00;;;;5005263;28;20431;-75
2022/01/29 01:58:43;;;;;;;1.00;0.97;;;0.20;99.90;-0.50;97750.00;;;;5006776;28;20429;-73
2022/01/29 02:01:32;;;;;;;1.17;0.83;;;0.20;99.90;-0.80;97747.00;;;;5003263;28;20453;-73
2022/01/29 02:04:21;;;;;;;0.90;0.83;;;0.10;99.90;-0.80;97760.00;;;;5005374;28;20809;-72
2022/01/29 02:07:10;;;;;;;3.47;1.30;;;0.10;99.90;-0.60;97752.00;;;;5003982;28;20433;-73
2022/01/29 02:10:00;;;;;;;1.00;0.90;;;0.10;99.90;-0.30;97765.00;;;;5005236;28;20433;-73
2022/01/29 02:12:51;;;;;;;2.20;0.83;;;0.20;99.90;-0.10;97772.00;;;;5004794;28;20789;-73
2022/01/29 02:15:40;;;;;;;2.07;0.87;;;0.30;99.90;-0.10;97772.00;;;;5006556;28;20517;-75
2022/01/29 02:18:29;;;;;;;2.27;0.80;;;0.30;99.90;0.10;97762.00;;;;4997967;28;20551;-73
2022/01/29 02:21:20;;;;;;;1.10;1.00;;;0.40;99.90;-0.10;97757.00;;;;5005258;28;20457;-72
2022/01/29 02:24:10;;;;;;;0.77;0.77;;;0.50;99.90;-0.70;97754.00;;;;5003565;28;21023;-76
2022/01/29 02:26:59;;;;;;;0.93;0.50;;;0.40;99.90;-0.60;97729.00;;;;5009637;28;20433;-72
2022/01/29 02:29:49;;;;;;;1.10;0.63;;;0.20;99.90;-0.50;97740.00;;;;5002807;28;20457;-74
2022/01/29 02:32:42;;;;;;;1.10;1.00;;;0.20;99.90;-0.40;97747.00;;;;5005714;28;20828;-71
2022/01/29 02:35:31;;;;;;;1.03;0.93;;;0.20;99.90;-0.40;97742.00;;;;5006236;28;20425;-71
2022/01/29 02:38:23;;;;;;;2.00;1.10;;;0.20;99.90;-0.40;97752.00;;;;5004213;28;20436;-73
2022/01/29 02:41:13;;;;;;;1.47;1.00;;;0.30;99.90;-0.50;97766.00;;;;4998217;28;20453;-75
2022/01/29 02:44:04;;;;;;;2.37;0.83;;;0.30;99.90;-0.30;97751.00;;;;5003764;28;20461;-74
2022/01/29 02:46:56;;;;;;;0.70;0.70;;;0.30;99.90;-0.60;97772.00;;;;5004808;28;21014;-74
2022/01/29 02:49:45;;;;;;;0.83;0.67;;;0.20;99.90;-0.40;97767.00;;;;5002682;28;20428;-73
2022/01/29 02:52:34;;;;;;;6.90;1.50;;;0.20;99.90;-0.50;97765.00;;;;5003974;28;20449;-75
2022/01/29 02:55:24;;;;;;;3.03;1.10;;;0.20;99.90;-0.30;97751.00;;;;5005568;28;20952;-73
2022/01/29 02:58:14;;;;;;;2.77;1.00;;;0.20;99.90;-0.40;97760.00;;;;5005186;28;20429;-73
2022/01/29 03:01:03;;;;;;;0.90;0.90;;;0.20;99.90;-0.80;97748.00;;;;4998932;28;20988;-74
2022/01/29 03:03:52;;;;;;;1.63;0.50;;;0.20;99.90;-1.00;97751.00;;;;4997957;28;20523;-76
2022/01/29 03:06:41;;;;;;;1.23;1.13;;;0.00;99.90;-0.70;97749.00;;;;5001394;28;20445;-73
2022/01/29 03:09:29;;;;;;;1.57;0.70;;;0.00;99.90;-0.70;97741.00;;;;4999579;28;20897;-73
2022/01/29 03:12:18;;;;;;;1.33;0.97;;;0.00;99.90;-0.60;97753.00;;;;5002436;28;20702;-75
2022/01/29 03:15:11;;;;;;;2.97;1.07;;;-0.10;99.90;-0.80;97757.00;;;;5003548;28;20425;-73
2022/01/29 03:18:00;;;;;;;1.70;0.80;;;-0.10;99.90;-0.80;97751.00;;;;5004729;28;20424;-73
2022/01/29 03:20:49;;;;;;;2.03;1.17;;;-0.10;99.90;-1.00;97737.00;;;;5004854;28;20916;-74
2022/01/29 03:23:38;;;;;;;3.23;1.33;;;-0.20;99.90;-1.00;97741.00;;;;5004229;28;20686;-72
2022/01/29 03:26:27;;;;;;;3.30;1.10;;;-0.20;99.90;-1.20;97748.00;;;;4999160;28;20616;-72
2022/01/29 03:29:15;;;;;;;1.07;1.00;;;-0.30;99.90;-1.30;97738.00;;;;5003888;28;20417;-76
2022/01/29 03:32:07;;;;;;;1.30;1.10;;;-0.40;99.90;-1.40;97744.00;;;;4998863;28;20449;-73
2022/01/29 03:34:56;;;;;;;1.43;0.90;;;-0.50;99.90;-1.20;97744.00;;;;5005676;28;20425;-73
2022/01/29 03:37:45;;;;;;;2.90;0.70;;;-0.50;99.90;-1.10;97747.00;;;;5004710;28;20445;-72
2022/01/29 03:40:34;;;;;;;3.37;1.83;;;-0.50;99.90;-1.40;97760.00;;;;5004920;28;20421;-73
2022/01/29 03:43:30;;;;;;;2.93;1.03;;;-0.50;99.90;-1.10;97748.00;;;;5004984;28;20460;-73
2022/01/29 03:46:18;;;;;;;1.10;0.80;;;-0.50;99.90;-1.00;97757.00;;;;5004065;28;20425;-72
2022/01/29 03:49:09;;;;;;;1.37;1.10;;;-0.50;99.90;-1.10;97770.00;;;;5001715;28;20455;-76
2022/01/29 03:51:58;;;;;;;2.57;1.13;;;-0.50;99.90;-1.00;97762.00;;;;5007679;28;20516;-75
2022/01/29 03:54:46;;;;;;;1.10;0.93;;;-0.50;99.90;-1.30;97762.00;;;;5009871;28;20436;-72
2022/01/29 03:57:35;;;;;;;6.30;1.47;;;-0.50;99.90;-1.10;97774.00;;;;5008439;28;20423;-72
2022/01/29 04:00:24;;;;;;;2.70;1.47;;;-0.50;99.90;-1.10;97768.00;;;;5004504;28;20425;-74
2022/01/29 04:03:13;;;;;;;3.73;1.57;;;-0.50;99.90;-1.40;97783.00;;;;5006988;28;20429;-74
2022/01/29 04:06:03;;;;;;;1.60;1.27;;;-0.60;99.90;-1.60;97776.00;;;;5009539;28;20499;-73
2022/01/29 04:08:53;;;;;;;6.97;1.40;;;-0.70;99.90;-1.50;97769.00;;;;5004314;28;20437;-73
2022/01/29 04:11:42;;;;;;;1.13;1.03;;;-0.70;99.90;-1.70;97769.00;;;;5008086;28;20459;-73
2022/01/29 04:14:35;;;;;;;3.80;1.47;;;-0.80;99.90;-1.60;97768.00;;;;5008372;28;20433;-74
2022/01/29 04:17:23;;;;;;;1.73;1.60;;;-0.80;99.90;-1.60;97766.00;;;;5010141;28;20447;-72
2022/01/29 04:20:13;;;;;;;4.67;1.20;;;-0.90;99.90;-1.90;97769.00;;;;4999308;28;20799;-75
2022/01/29 04:23:06;;;;;;;2.37;1.90;;;-0.90;99.90;-1.70;97774.00;;;;4998321;28;20429;-73
2022/01/29 04:25:55;;;;;;;5.33;1.30;;;-0.90;99.90;-1.50;97766.00;;;;5008449;28;20819;-74
2022/01/29 04:28:45;;;;;;;1.73;1.63;;;-0.90;99.90;-1.90;97762.00;;;;5008848;28;20425;-72
2022/01/29 04:31:40;;;;;;;3.90;1.23;;;-0.90;99.90;-1.90;97768.00;;;;5004647;28;20448;-72
2022/01/29 04:34:29;;;;;;;2.30;1.40;;;-1.00;99.90;-2.00;97761.00;;;;5005294;28;20437;-73
2022/01/29 04:37:18;;;;;;;3.10;1.43;;;-1.10;99.90;-1.80;97759.00;;;;5007421;28;20425;-72
2022/01/29 04:40:10;;;;;;;1.23;0.87;;;-1.10;99.90;-1.50;97761.00;;;;5007870;28;20440;-72
2022/01/29 04:42:59;;;;;;;4.50;1.70;;;-1.10;99.90;-1.60;97762.00;;;;5000825;28;20433;-74
2022/01/29 04:45:48;;;;;;;1.43;1.10;;;-1.10;99.90;-1.70;97756.00;;;;5000577;28;20996;-72
2022/01/29 04:48:37;;;;;;;1.03;0.97;;;-1.00;99.90;-1.70;97749.00;;;;5001637;28;20421;-76
2022/01/29 04:51:26;;;;;;;1.00;1.00;;;-1.00;99.90;-1.60;97766.00;;;;5006767;28;20448;-72
2022/01/29 04:54:15;;;;;;;0.87;0.83;;;-1.00;99.90;-1.40;97752.00;;;;5006860;28;20428;-73
2022/01/29 04:57:06;;;;;;;1.03;0.93;;;-1.00;99.90;-1.50;97760.00;;;;5007077;28;20428;-73
2022/01/29 04:59:54;;;;;;;5.67;1.27;;;-0.90;99.90;-1.50;97757.00;;;;5006698;28;21016;-73
2022/01/29 05:02:43;;;;;;;1.33;0.87;;;-0.80;99.90;-1.40;97769.00;;;;5002424;28;20433;-72
2022/01/29 05:05:32;;;;;;;1.13;0.90;;;-0.70;99.90;-1.40;97770.00;;;;5001245;28;20475;-73
2022/01/29 05:08:21;;;;;;;4.03;1.10;;;-0.70;99.90;-1.50;97762.00;;;;4995261;28;20432;-75
2022/01/29 05:11:17;;;;;;;1.57;1.17;;;0.30;99.90;-1.30;97769.00;;;;5008187;28;20804;-74
2022/01/29 05:14:18;;;;;;;2.00;0.90;;;-0.70;99.90;-1.50;97773.00;;;;5008901;28;20684;-73
2022/01/29 05:26:49;;;;;;;1.50;1.10;;;-0.80;99.90;-1.60;97775.00;;;;4999698;28;20445;-72
2022/01/29 05:26:52;;;;;;;2.47;1.43;;;-0.80;99.90;-1.10;97774.00;;;;5007636;28;20429;-73
2022/01/29 05:29:42;;;;;;;2.03;0.63;;;-0.70;99.90;-1.30;97779.00;;;;5006759;28;20426;-73
2022/01/29 05:32:31;;;;;;;2.40;1.17;;;-0.70;99.90;-1.30;97783.00;;;;5006731;28;20445;-72
2022/01/29 05:35:21;;;;;;;2.70;1.10;;;-0.70;99.90;-1.30;97780.00;;;;5007685;28;20429;-75
2022/01/29 05:38:09;;;;;;;1.57;1.03;;;-0.70;99.90;-1.40;97782.00;;;;5005788;28;21006;-72
2022/01/29 05:40:59;;;;;;;1.23;1.13;;;-0.70;99.90;-1.40;97788.00;;;;5006679;28;20457;-72
2022/01/29 05:43:48;;;;;;;2.53;1.80;;;-0.80;99.90;-1.40;97784.00;;;;5006255;28;20532;-72
2022/01/29 05:46:39;;;;;;;2.40;1.07;;;-0.80;99.90;-1.40;97779.00;;;;5006810;28;20978;-74
2022/01/29 05:49:27;;;;;;;1.17;1.00;;;-0.80;99.90;-1.30;97783.00;;;;5006991;28;20810;-72
2022/01/29 05:52:16;;;;;;;1.07;1.03;;;-0.70;99.90;-1.40;97783.00;;;;5007730;28;20456;-72
2022/01/29 05:55:06;;;;;;;1.03;1.00;;;-0.70;99.90;-1.40;97777.00;;;;5006805;28;20448;-72
2022/01/29 05:57:55;;;;;;;1.40;1.00;;;-0.70;99.90;-1.30;97775.00;;;;5001840;28;20433;-74
2022/01/29 06:00:44;;;;;;;2.50;1.10;;;-0.70;99.90;-1.40;97768.00;;;;4998128;28;20456;-72
2022/01/29 06:03:34;;;;;;;1.77;1.10;;;-0.70;99.90;-1.40;97765.00;;;;4998272;28;21000;-71
2022/01/29 06:06:23;;;;;;;1.20;1.10;;;-0.70;99.90;-1.30;97771.00;;;;5007566;28;20484;-72
2022/01/29 06:09:12;;;;;;;3.47;1.80;;;-0.70;99.90;-1.40;97770.00;;;;5006754;28;20437;-72
2022/01/29 06:12:01;;;;;;;3.13;0.90;;;-0.70;99.90;-1.60;97768.00;;;;4996954;28;20445;-72
2022/01/29 06:14:49;;;;;;;3.10;0.87;;;-0.80;99.90;-1.50;97775.00;;;;5005119;28;20425;-72
2022/01/29 06:17:39;;;;;;;1.33;1.20;;;-0.80;99.90;-1.40;97777.00;;;;4997332;28;20427;-73
2022/01/29 06:20:29;;;;;;;2.17;1.23;;;-0.80;99.90;-1.60;97769.00;;;;5006332;28;20421;-75
2022/01/29 06:23:23;;;;;;;1.43;1.17;;;-0.90;99.90;-1.80;97775.00;;;;5006728;28;20756;-74
2022/01/29 06:26:16;;;;;;;4.50;0.97;;;-1.00;99.90;-1.90;97761.00;;;;5007265;28;20465;-75
2022/01/29 06:29:05;;;;;;;1.97;1.40;;;-1.10;99.90;-1.80;97765.00;;;;5006109;28;20437;-73
2022/01/29 06:31:54;;;;;;;1.13;1.13;;;-1.80;99.90;-1.80;97766.00;;;;5002774;28;20499;-73
2022/01/29 06:34:43;;;;;;;1.80;1.60;;;-1.10;99.90;-1.70;97768.00;;;;4999906;28;21017;-73
2022/01/29 06:37:33;;;;;;;3.47;1.40;;;-1.10;99.90;-1.90;97771.00;;;;5006747;28;20425;-72
2022/01/29 06:40:22;;;;;;;0.90;0.90;;;-1.10;99.90;-2.00;97784.00;;;;4997239;28;20445;-72
2022/01/29 06:43:11;;;;;;;1.83;1.07;;;-1.20;99.90;-2.10;97778.00;;;;5012154;28;20441;-75
2022/01/29 06:46:00;;;;;;;3.03;1.53;;;-1.30;99.90;-2.10;97774.00;;;;5000851;28;20457;-72
2022/01/29 06:48:49;;;;;;;3.10;1.23;;;-1.40;99.90;-2.10;97774.00;;;;5000126;28;20438;-72
2022/01/29 06:51:38;;;;;;;2.60;1.10;;;-1.50;99.90;-2.30;97779.00;;;;5005134;28;20963;-72
2022/01/29 06:54:28;;;;;;;1.77;1.67;;;-1.50;99.90;-2.30;97770.00;;;;5006966;28;20425;-75
2022/01/29 06:57:17;;;;;;;2.73;2.40;;;-2.50;99.90;-2.30;97762.00;;;;5007232;28;20777;-74
2022/01/29 07:00:08;;;;;;;35.97;22.00;;;-1.60;99.90;-2.10;97779.00;;;;5005398;28;20429;-72
2022/01/29 07:02:57;;;;;;;13.93;7.40;;;-1.60;99.90;-2.10;97791.00;;;;5001188;28;20811;-72
2022/01/29 07:05:46;;;;;;;4.33;3.67;;;-1.50;99.90;-2.10;97799.00;;;;5001870;28;21040;-73
2022/01/29 07:08:38;;;;;;;3.13;2.43;;;-1.50;99.90;-2.10;97798.00;;;;5006731;28;20441;-72
2022/01/29 07:11:28;;;;;;;3.40;2.00;;;-1.50;99.90;-2.20;97813.00;;;;5006063;28;20450;-73
2022/01/29 07:14:17;;;;;;;2.20;1.77;;;-1.50;99.90;-2.10;97800.00;;;;5001614;28;20804;-72
2022/01/29 07:17:10;;;;;;;3.00;2.20;;;-1.50;99.90;-2.00;97809.00;;;;5005719;28;20486;-73
2022/01/29 07:19:59;;;;;;;5.13;2.33;;;-1.50;99.90;-2.00;97808.00;;;;4999151;28;20474;-73
2022/01/29 07:22:48;;;;;;;2.50;1.80;;;-1.50;99.90;-2.00;97810.00;;;;5005295;28;20422;-74
2022/01/29 07:25:40;;;;;;;2.57;1.87;;;-1.50;99.90;-1.90;97798.00;;;;5000963;28;20473;-72
2022/01/29 07:28:34;;;;;;;2.10;1.90;;;-1.40;99.90;-2.10;97805.00;;;;5004227;28;20421;-74
2022/01/29 07:31:23;;;;;;;2.23;1.80;;;-1.40;99.90;-2.20;97788.00;;;;5008145;28;20503;-73
2022/01/29 07:34:11;;;;;;;5.83;2.63;;;-1.40;99.90;-2.00;97792.00;;;;5005098;28;20437;-73
2022/01/29 07:37:01;;;;;;;9.13;6.67;;;-1.40;99.90;-2.00;97806.00;;;;4994610;28;20423;-74
2022/01/29 07:39:49;;;;;;;23.10;15.17;;;-1.40;99.90;-1.80;97798.00;;;;5004866;28;20967;-72
2022/01/29 07:42:38;;;;;;;8.87;6.23;;;-1.30;99.90;-1.70;97813.00;;;;5003640;28;20442;-74
2022/01/29 07:45:29;;;;;;;7.07;4.33;;;-1.20;99.90;-1.50;97826.00;;;;4998483;28;20457;-73
2022/01/29 07:48:18;;;;;;;9.00;6.20;;;-1.10;99.90;-1.40;97820.00;;;;4995421;28;21396;-73
2022/01/29 07:51:08;;;;;;;3.33;2.40;;;-1.00;99.90;-1.40;97815.00;;;;4998827;28;20449;-73
2022/01/29 07:53:57;;;;;;;2.10;1.90;;;-0.90;99.90;-1.20;97814.00;;;;5001754;28;20444;-74
2022/01/29 07:56:45;;;;;;;2.83;2.40;;;-0.80;99.90;-1.10;97815.00;;;;4999805;28;20889;-71
2022/01/29 07:59:34;;;;;;;2.47;2.00;;;-0.80;99.90;-1.20;97815.00;;;;5004476;28;20956;-74
2022/01/29 08:02:24;;;;;;;3.93;1.70;;;-0.70;99.90;-1.10;97804.00;;;;5004723;28;20484;-74
2022/01/29 08:05:13;;;;;;;4.03;2.40;;;-0.60;99.90;-1.40;97809.00;;;;5004120;28;20441;-74
2022/01/29 08:08:02;;;;;;;2.43;2.23;;;-0.60;99.90;-1.40;97806.00;;;;5006875;28;20813;-74
2022/01/29 08:10:52;;;;;;;2.33;1.70;;;-0.70;99.90;-1.60;97805.00;;;;5005637;28;20449;-73
2022/01/29 08:13:43;;;;;;;1.93;1.60;;;-0.70;99.90;-1.70;97802.00;;;;5001859;28;20437;-77
2022/01/29 08:16:32;;;;;;;3.03;1.80;;;-0.70;99.90;-1.40;97816.00;;;;5001081;28;20433;-74
2022/01/29 08:19:22;;;;;;;2.43;1.70;;;-0.70;99.90;-1.20;97814.00;;;;4981333;28;21124;-76
2022/01/29 08:22:11;;;;;;;1.87;1.77;;;-0.70;99.90;-1.30;97807.00;;;;4989705;28;20484;-75
2022/01/29 08:25:01;;;;;;;1.97;1.60;;;-0.70;99.90;-1.20;97808.00;;;;4988928;28;20461;-77
2022/01/29 08:27:50;;;;;;;2.03;1.83;;;-0.60;99.90;-1.00;97801.00;;;;4991786;28;20445;-75
2022/01/29 08:30:39;;;;;;;2.97;2.20;;;-0.60;99.90;-1.20;97802.00;;;;4981102;28;20453;-75
2022/01/29 08:33:28;;;;;;;4.80;3.17;;;-0.50;99.90;-1.00;97788.00;;;;4989108;28;20462;-74
2022/01/29 08:36:21;;;;;;;11.97;2.90;;;-0.50;99.90;-0.80;97802.00;;;;4990482;28;20444;-72
2022/01/29 08:39:10;;;;;;;3.23;2.07;;;-0.50;99.90;-1.00;97793.00;;;;4995345;28;20425;-76
2022/01/29 08:41:59;;;;;;;2.40;1.93;;;-0.50;99.90;-0.80;97785.00;;;;4998217;28;20453;-73
2022/01/29 08:44:48;;;;;;;1.87;1.73;;;-0.50;99.90;-0.80;97798.00;;;;4999231;28;20446;-76
2022/01/29 08:47:37;;;;;;;2.57;2.00;;;-0.40;99.90;-0.70;97791.00;;;;4997882;28;20468;-74
2022/01/29 08:50:26;;;;;;;3.13;1.77;;;-0.40;99.90;-0.60;97789.00;;;;4992154;28;20990;-75
2022/01/29 08:53:17;;;;;;;8.27;2.93;;;-0.10;99.90;-0.90;97782.00;;;;4999193;28;20475;-76
2022/01/29 08:56:06;;;;;;;4.93;2.87;;;-0.30;99.90;-0.60;97784.00;;;;5002710;28;21004;-73
2022/01/29 08:58:55;;;;;;;3.50;2.40;;;-0.30;99.90;-0.40;97796.00;;;;4992492;28;20445;-73
2022/01/29 09:01:44;;;;;;;6.40;2.80;;;-0.20;99.90;0.00;97785.00;;;;4989922;28;20446;-73
2022/01/29 09:04:33;;;;;;;7.60;2.33;;;-0.10;99.90;-0.10;97784.00;;;;4999896;28;20448;-76
2022/01/29 09:07:22;;;;;;;5.53;2.40;;;0.00;99.90;-0.10;97785.00;;;;4992531;28;20483;-72
2022/01/29 09:10:12;;;;;;;5.10;2.70;;;0.10;99.90;0.20;97778.00;;;;4992982;28;20422;-77
2022/01/29 09:13:03;;;;;;;2.63;1.93;;;0.20;99.90;0.20;97762.00;;;;4991046;28;20443;-75
2022/01/29 09:15:52;;;;;;;4.27;3.13;;;0.30;99.90;0.30;97775.00;;;;4991773;28;20450;-74
2022/01/29 09:18:41;;;;;;;3.43;2.50;;;0.40;99.90;0.40;97770.00;;;;4991392;28;20448;-74
2022/01/29 09:21:30;;;;;;;2.83;2.47;;;0.50;99.90;0.60;97765.00;;;;4993786;28;20817;-75
2022/01/29 09:24:19;;;;;;;8.03;2.97;;;0.70;99.90;0.20;97759.00;;;;4991741;28;20433;-76
2022/01/29 09:27:09;;;;;;;2.83;2.30;;;0.00;99.90;0.20;97751.00;;;;4992280;28;20476;-75
2022/01/29 09:29:58;;;;;;;5.17;2.57;;;0.70;99.90;0.20;97752.00;;;;4994363;28;20448;-75
2022/01/29 09:32:47;;;;;;;6.43;2.30;;;0.70;99.90;0.40;97759.00;;;;4991681;28;20467;-73
2022/01/29 09:35:38;;;;;;;5.07;2.40;;;0.70;99.90;0.90;97751.00;;;;4996138;28;20461;-75
2022/01/29 09:38:27;;;;;;;4.43;3.10;;;0.80;99.90;1.10;97737.00;;;;4996580;28;20445;-74
2022/01/29 09:41:18;;;;;;;6.47;3.20;;;1.00;99.90;1.70;97743.00;;;;4995817;28;21085;-74
2022/01/29 09:44:08;;;;;;;5.40;2.27;;;1.30;99.90;2.10;97745.00;;;;4990471;28;20445;-75
2022/01/29 09:46:57;;;;;;;4.67;2.77;;;1.60;99.90;2.40;97739.00;;;;4991626;28;20485;-76
2022/01/29 09:49:47;;;;;;;8.67;3.73;;;1.90;99.90;2.70;97739.00;;;;4989893;28;20675;-76
2022/01/29 09:52:36;;;;;;;6.20;3.47;;;2.20;99.90;2.80;97738.00;;;;4991282;28;20957;-72
2022/01/29 09:55:26;;;;;;;3.27;2.73;;;2.40;99.90;2.80;97741.00;;;;4990422;28;20939;-75
2022/01/29 09:58:16;;;;;;;4.07;3.07;;;2.60;99.90;3.00;97744.00;;;;4992570;28;20429;-74
2022/01/29 10:01:06;;;;;;;12.23;3.17;;;2.70;99.90;3.40;97720.00;;;;4993340;28;20449;-74
2022/01/29 10:04:03;;;;;;;6.67;2.70;;;2.90;99.90;4.00;97718.00;;;;4986400;28;20440;-73
2022/01/29 10:07:14;;;;;;;11.33;3.13;;;3.20;99.90;4.40;97704.00;;;;4990909;28;20477;-74
2022/01/29 10:10:17;;;;;;;10.10;3.13;;;3.60;99.90;4.70;97712.00;;;;4992507;28;20815;-75
2022/01/29 10:13:30;;;;;;;5.90;2.87;;;3.90;99.90;5.10;97706.00;;;;4989043;28;20515;-74
2022/01/29 10:16:23;;;;;;;3.30;2.10;;;4.30;99.90;5.40;97707.00;;;;4988552;28;20206;-73
2022/01/29 10:19:14;;;;;;;8.27;3.73;;;4.60;99.90;5.60;97705.00;;;;4989647;28;20295;-73
2022/01/29 10:22:03;;;;;;;4.13;2.67;;;4.90;99.90;6.00;97694.00;;;;4991921;28;20222;-74
2022/01/29 10:24:52;;;;;;;8.03;2.97;;;5.20;99.90;6.30;97688.00;;;;4988058;28;20222;-76
2022/01/29 10:28:09;;;;;;;10.93;3.13;;;5.50;99.90;6.30;97681.00;;;;4991547;28;20245;-74
2022/01/29 10:31:01;;;;;;;7.13;2.77;;;5.70;99.90;6.50;97677.00;;;;4991868;28;20236;-73
2022/01/29 10:33:51;;;;;;;18.60;3.67;;;5.90;98.50;6.80;97672.00;;;;4987506;28;20210;-76
2022/01/29 10:36:40;;;;;;;6.43;2.53;;;6.10;97.50;7.20;97653.00;;;;4988517;28;20217;-75
2022/01/29 10:39:30;;;;;;;7.13;3.23;;;6.40;97.30;7.30;97654.00;;;;4990016;28;20209;-75
2022/01/29 10:42:22;;;;;;;7.27;2.50;;;6.70;95.10;8.10;97659.00;;;;4987460;28;20225;-73
2022/01/29 10:45:11;;;;;;;5.97;2.50;;;7.50;93.90;8.80;97657.00;;;;4992568;28;20567;-73
2022/01/29 10:48:00;;;;;;;4.27;2.07;;;8.30;92.30;9.20;97656.00;;;;4992259;28;20226;-73
2022/01/29 10:51:11;;;;;;;6.37;1.97;;;9.10;87.20;9.80;97642.00;;;;4991069;28;20229;-74
2022/01/29 10:54:17;;;;;;;5.20;2.30;;;9.70;80.30;10.30;97638.00;;;;4987287;28;20669;-75
2022/01/29 10:57:08;;;;;;;5.57;1.83;;;10.30;76.70;10.40;97630.00;;;;4993506;28;20208;-75
2022/01/29 10:59:57;;;;;;;2.17;1.90;;;10.60;70.10;10.70;97625.00;;;;4991183;28;20220;-75
2022/01/29 11:02:46;;;;;;;2.87;1.50;;;10.80;68.00;10.20;97612.00;;;;4990957;28;20214;-75
2022/01/29 11:05:36;;;;;;;11.47;2.57;;;10.90;60.50;10.70;97612.00;;;;4991417;28;20222;-78
2022/01/29 11:08:27;;;;;;;6.53;2.33;;;11.00;61.60;11.10;97610.00;;;;4988371;28;20210;-74
2022/01/29 11:11:17;;;;;;;9.03;2.60;;;11.10;62.10;10.90;97609.00;;;;4989196;28;20226;-74
2022/01/29 11:14:22;;;;;;;9.03;3.07;;;11.20;60.30;11.40;97602.00;;;;4987110;28;20377;-73
2022/01/29 11:17:11;;;;;;;9.83;3.30;;;11.30;61.50;11.60;97606.00;;;;4990227;28;20222;-71
2022/01/29 11:20:03;;;;;;;8.17;2.53;;;11.50;61.80;11.30;97595.00;;;;4987539;28;20213;-73
2022/01/29 11:22:54;;;;;;;8.20;3.30;;;11.50;58.30;11.10;97585.00;;;;4990714;28;20568;-74
2022/01/29 11:25:44;;;;;;;16.93;3.70;;;11.40;58.30;10.30;97594.00;;;;4991528;28;20594;-76
2022/01/29 11:28:34;;;;;;;6.53;2.73;;;11.20;56.90;11.50;97594.00;;;;4985736;28;20917;-76
2022/01/29 11:31:23;;;;;;;8.83;2.23;;;11.20;58.00;11.50;97588.00;;;;4987552;28;20234;-75
2022/01/29 11:34:22;;;;;;;7.90;2.47;;;11.40;57.20;11.50;97580.00;;;;4987880;28;20206;-76
2022/01/29 11:37:11;;;;;;;2.37;2.07;;;11.60;55.80;10.90;97571.00;;;;4991225;28;20209;-75
2022/01/29 11:40:17;;;;;;;4.60;1.93;;;11.50;54.90;11.40;97561.00;;;;4987147;28;20214;-75
2022/01/29 11:43:26;;;;;;;5.33;2.30;;;11.40;54.80;11.70;97562.00;;;;4987552;28;20626;-75
2022/01/29 11:46:31;;;;;;;3.70;2.43;;;11.50;55.40;11.60;97551.00;;;;4990952;28;20206;-75
2022/01/29 11:49:22;;;;;;;2.73;1.97;;;11.80;53.20;12.10;97556.00;;;;4984823;28;20693;-75
2022/01/29 11:52:22;;;;;;;4.43;2.20;;;11.80;53.80;11.50;97536.00;;;;4985382;28;20233;-75
2022/01/29 11:55:11;;;;;;;8.30;3.50;;;12.00;52.60;12.30;97526.00;;;;4989502;28;20214;-74
2022/01/29 11:58:26;;;;;;;5.13;2.43;;;12.10;52.70;12.20;97519.00;;;;4988775;28;20720;-74
2022/01/29 12:01:32;;;;;;;8.13;1.97;;;12.30;52.10;12.40;97514.00;;;;4986861;28;20238;-74
2022/01/29 12:04:23;;;;;;;4.73;2.00;;;12.40;52.20;12.70;97512.00;;;;4985169;28;20213;-73
2022/01/29 12:07:14;;;;;;;4.27;2.13;;;12.50;51.60;12.80;97497.00;;;;4984744;28;20253;-73
2022/01/29 12:10:08;;;;;;;7.13;1.73;;;12.60;51.20;12.90;97505.00;;;;4992912;28;20682;-74
2022/01/29 12:13:12;;;;;;;3.53;2.10;;;12.80;50.80;13.10;97497.00;;;;4994775;28;20194;-75
2022/01/29 12:16:02;;;;;;;2.50;1.33;;;13.00;50.00;13.00;97510.00;;;;4996072;28;20198;-75
2022/01/29 12:18:51;;;;;;;4.00;1.77;;;13.30;48.70;13.40;97509.00;;;;4993884;28;20284;-75
2022/01/29 12:21:42;;;;;;;2.30;1.43;;;13.30;49.10;12.70;97515.00;;;;4988781;28;20228;-74
2022/01/29 12:24:30;;;;;;;3.33;2.10;;;13.20;48.70;12.50;97511.00;;;;4994003;28;20206;-74
2022/01/29 12:27:19;;;;;;;2.53;1.70;;;13.00;48.70;11.00;97512.00;;;;4996319;28;20210;-75
2022/01/29 12:30:10;;;;;;;1.97;1.77;;;12.60;48.00;11.30;97493.00;;;;4990688;28;20213;-75
2022/01/29 12:33:04;;;;;;;4.20;2.00;;;12.20;48.80;11.20;97479.00;;;;4993248;28;20210;-74
2022/01/29 12:35:58;;;;;;;3.23;1.73;;;11.20;49.10;10.40;97470.00;;;;4990816;28;20212;-74
2022/01/29 12:38:47;;;;;;;7.63;2.37;;;11.40;49.90;10.30;97471.00;;;;4991002;28;20239;-74
2022/01/29 12:41:40;;;;;;;5.47;2.30;;;11.10;50.30;10.10;97466.00;;;;4988895;28;20225;-74
2022/01/29 12:44:29;;;;;;;6.80;2.40;;;10.80;50.60;8.90;97462.00;;;;4990558;28;20682;-73
2022/01/29 12:47:25;;;;;;;3.43;1.90;;;9.80;51.10;10.00;97459.00;;;;4990854;28;20206;-73
2022/01/29 12:50:22;;;;;;;5.30;2.37;;;10.10;52.20;10.40;97453.00;;;;4989910;28;20564;-72